createdAt,value
2018-11-11T00:00:12.730Z,12.70
2018-11-11T00:02:41.705Z,12.80
2018-11-11T00:05:11.449Z,12.80
2018-11-11T00:07:40.904Z,12.90
2018-11-11T00:10:09.887Z,12.80
2018-11-11T00:12:39.439Z,12.70
2018-11-11T00:15:10.648Z,12.70
2018-11-11T00:17:40.144Z,12.80
2018-11-11T00:20:09.900Z,12.80
2018-11-11T00:22:39.154Z,12.80
2018-11-11T00:25:08.371Z,12.90
2018-11-11T00:27:38.153Z,12.90
2018-11-11T00:30:11.751Z,13.00
2018-11-11T00:32:40.955Z,13.00
2018-11-11T00:35:10.312Z,12.90
2018-11-11T00:37:39.674Z,12.50
2018-11-11T00:40:09.476Z,12.40
2018-11-11T00:42:38.445Z,12.60
2018-11-11T00:45:08.205Z,12.80
2018-11-11T00:47:37.191Z,12.70
2018-11-11T00:50:07.515Z,12.90
2018-11-11T00:52:36.479Z,13.10
2018-11-11T00:55:07.360Z,13.30
2018-11-11T00:57:36.360Z,13.30
2018-11-11T01:00:07.264Z,13.30
2018-11-11T01:02:36.291Z,12.70
2018-11-11T01:05:06.464Z,12.60
2018-11-11T01:07:35.592Z,13.10
2018-11-11T01:10:05.712Z,13.30
2018-11-11T01:12:34.730Z,13.30
2018-11-11T01:15:03.759Z,13.30
2018-11-11T01:17:32.771Z,13.10
2018-11-11T01:20:01.730Z,12.90
2018-11-11T01:22:30.683Z,12.80
2018-11-11T01:24:59.623Z,12.80
2018-11-11T01:27:28.664Z,13.00
2018-11-11T01:29:58.790Z,13.10
2018-11-11T01:32:27.786Z,13.10
2018-11-11T01:34:56.747Z,13.40
2018-11-11T01:37:25.737Z,13.40
2018-11-11T01:39:54.724Z,13.40
2018-11-11T01:42:23.754Z,13.30
2018-11-11T01:44:52.744Z,13.10
2018-11-11T01:47:21.725Z,12.90
2018-11-11T01:49:50.685Z,13.10
2018-11-11T01:52:19.648Z,13.00
2018-11-11T01:54:48.612Z,13.00
2018-11-11T01:57:17.604Z,12.90
2018-11-11T01:59:46.577Z,12.90
2018-11-11T02:02:15.561Z,12.90
2018-11-11T02:04:44.484Z,12.80
2018-11-11T02:07:13.462Z,12.80
2018-11-11T02:09:42.459Z,12.70
2018-11-11T02:12:11.411Z,12.60
2018-11-11T02:14:40.361Z,12.60
2018-11-11T02:17:09.352Z,12.50
2018-11-11T02:19:38.359Z,12.50
2018-11-11T02:22:07.406Z,12.50
2018-11-11T02:24:36.469Z,12.40
2018-11-11T02:27:06.152Z,12.30
2018-11-11T02:29:35.135Z,12.30
2018-11-11T02:32:04.063Z,12.30
2018-11-11T02:34:33.042Z,12.30
2018-11-11T02:37:02.009Z,12.20
2018-11-11T02:39:31.052Z,12.20
2018-11-11T02:42:00.340Z,12.20
2018-11-11T02:44:29.346Z,12.20
2018-11-11T02:46:58.304Z,12.20
2018-11-11T02:49:27.281Z,12.20
2018-11-11T02:51:56.287Z,12.30
2018-11-11T02:54:25.335Z,12.20
2018-11-11T02:56:54.303Z,12.40
2018-11-11T02:59:23.260Z,12.30
2018-11-11T03:01:52.250Z,12.50
2018-11-11T03:04:21.315Z,12.50
2018-11-11T03:06:50.217Z,12.50
2018-11-11T03:09:19.213Z,12.60
2018-11-11T03:11:48.171Z,12.60
2018-11-11T03:14:17.285Z,12.70
2018-11-11T03:16:46.249Z,12.60
2018-11-11T03:19:15.616Z,12.60
2018-11-11T03:21:44.605Z,12.60
2018-11-11T03:24:13.599Z,12.60
2018-11-11T03:26:42.544Z,12.60
2018-11-11T03:29:11.551Z,12.40
2018-11-11T03:31:40.497Z,12.40
2018-11-11T03:34:10.822Z,12.50
2018-11-11T03:36:39.772Z,12.50
2018-11-11T03:39:09.689Z,12.50
2018-11-11T03:41:39.027Z,12.50
2018-11-11T03:44:08.023Z,12.40
2018-11-11T03:46:36.973Z,12.40
2018-11-11T03:49:05.987Z,12.30
2018-11-11T03:51:34.959Z,12.20
2018-11-11T03:54:03.962Z,12.30
2018-11-11T03:56:32.921Z,12.40
2018-11-11T03:59:01.908Z,12.40
2018-11-11T04:01:30.877Z,12.30
2018-11-11T04:03:59.829Z,12.40
2018-11-11T04:06:29.036Z,12.40
2018-11-11T04:08:58.037Z,12.40
2018-11-11T04:11:27.061Z,12.50
2018-11-11T04:13:56.072Z,12.20
2018-11-11T04:16:25.117Z,12.10
2018-11-11T04:18:54.063Z,12.30
2018-11-11T04:21:23.094Z,12.50
2018-11-11T04:23:52.072Z,12.50
2018-11-11T04:26:21.034Z,12.30
2018-11-11T04:28:49.957Z,12.50
2018-11-11T04:31:18.990Z,12.50
2018-11-11T04:33:47.937Z,12.40
2018-11-11T04:36:17.594Z,12.20
2018-11-11T04:38:46.560Z,12.30
2018-11-11T04:41:15.564Z,12.30
2018-11-11T04:43:45.107Z,12.20
2018-11-11T04:46:14.269Z,12.20
2018-11-11T04:48:43.184Z,12.20
2018-11-11T04:51:13.598Z,12.20
2018-11-11T04:53:42.557Z,12.10
2018-11-11T04:56:11.521Z,12.10
2018-11-11T04:58:40.483Z,12.10
2018-11-11T05:01:09.490Z,12.00
2018-11-11T05:03:38.546Z,12.00
2018-11-11T05:06:07.562Z,12.00
2018-11-11T05:08:36.507Z,12.00
2018-11-11T05:11:05.709Z,11.90
2018-11-11T05:13:34.641Z,12.00
2018-11-11T05:16:03.604Z,12.00
2018-11-11T05:18:32.558Z,12.00
2018-11-11T05:21:01.528Z,11.90
2018-11-11T05:23:30.493Z,11.90
2018-11-11T05:25:59.468Z,11.90
2018-11-11T05:28:29.131Z,12.00
2018-11-11T05:30:58.208Z,11.90
2018-11-11T05:33:27.149Z,11.90
2018-11-11T05:35:56.134Z,12.00
2018-11-11T05:38:25.083Z,12.00
2018-11-11T05:40:54.084Z,11.90
2018-11-11T05:43:23.061Z,12.00
2018-11-11T05:45:52.057Z,11.90
2018-11-11T05:48:21.515Z,12.00
2018-11-11T05:50:50.491Z,12.00
2018-11-11T05:53:19.431Z,12.00
2018-11-11T05:55:48.371Z,12.00
2018-11-11T05:58:17.677Z,11.90
2018-11-11T06:00:46.728Z,11.70
2018-11-11T06:03:15.694Z,11.90
2018-11-11T06:05:44.709Z,11.90
2018-11-11T06:08:13.703Z,11.90
2018-11-11T06:10:44.129Z,11.90
2018-11-11T06:13:13.132Z,11.80
2018-11-11T06:15:42.081Z,11.80
2018-11-11T06:18:11.097Z,12.00
2018-11-11T06:20:40.294Z,12.00
2018-11-11T06:23:12.033Z,11.90
2018-11-11T06:25:41.813Z,12.00
2018-11-11T06:28:11.981Z,12.00
2018-11-11T06:30:41.234Z,12.00
2018-11-11T06:33:10.246Z,12.20
2018-11-11T06:35:39.192Z,12.30
2018-11-11T06:38:08.158Z,12.10
2018-11-11T06:40:41.756Z,12.20
2018-11-11T06:43:10.729Z,12.30
2018-11-11T06:45:39.690Z,12.00
2018-11-11T06:48:08.751Z,12.10
2018-11-11T06:50:37.654Z,12.20
2018-11-11T06:53:06.627Z,12.20
2018-11-11T06:55:35.586Z,12.20
2018-11-11T06:58:04.901Z,12.30
2018-11-11T07:00:33.810Z,12.30
2018-11-11T07:03:14.357Z,12.60
2018-11-11T07:05:43.315Z,12.50
2018-11-11T07:08:12.318Z,12.60
2018-11-11T07:10:41.293Z,12.50
2018-11-11T07:13:10.333Z,12.70
2018-11-11T07:15:39.325Z,12.60
2018-11-11T07:18:08.323Z,12.50
2018-11-11T07:20:37.264Z,12.50
2018-11-11T07:23:06.828Z,12.50
2018-11-11T07:25:35.787Z,12.40
2018-11-11T07:28:05.246Z,12.30
2018-11-11T07:30:34.684Z,12.40
2018-11-11T07:33:03.676Z,12.30
2018-11-11T07:35:33.912Z,12.30
2018-11-11T07:38:02.907Z,12.20
2018-11-11T07:40:31.928Z,12.20
2018-11-11T07:43:00.949Z,12.10
2018-11-11T07:45:29.891Z,11.80
2018-11-11T07:47:58.937Z,11.60
2018-11-11T07:50:27.848Z,11.50
2018-11-11T07:52:56.918Z,11.30
2018-11-11T07:55:25.914Z,11.70
2018-11-11T07:57:54.911Z,11.60
2018-11-11T08:00:26.057Z,11.70
2018-11-11T08:02:55.549Z,11.80
2018-11-11T08:05:24.512Z,11.90
2018-11-11T08:07:53.487Z,12.10
2018-11-11T08:10:33.720Z,12.10
2018-11-11T08:13:02.796Z,11.70
2018-11-11T08:15:32.422Z,11.80
2018-11-11T08:18:01.483Z,11.90
2018-11-11T08:20:31.511Z,11.80
2018-11-11T08:23:00.550Z,11.80
2018-11-11T08:25:29.526Z,11.70
2018-11-11T08:27:58.807Z,11.50
2018-11-11T08:30:27.755Z,11.70
2018-11-11T08:32:56.784Z,11.80
2018-11-11T08:35:25.743Z,11.80
2018-11-11T08:37:54.717Z,12.00
2018-11-11T08:40:23.747Z,11.90
2018-11-11T08:42:53.160Z,12.00
2018-11-11T08:45:22.087Z,11.90
2018-11-11T08:47:51.068Z,11.80
2018-11-11T08:50:19.989Z,11.80
2018-11-11T08:52:48.957Z,12.00
2018-11-11T08:55:17.934Z,12.00
2018-11-11T08:57:46.988Z,12.00
2018-11-11T09:00:15.880Z,12.00
2018-11-11T09:02:44.888Z,11.90
2018-11-11T09:05:13.979Z,12.00
2018-11-11T09:07:42.972Z,12.00
2018-11-11T09:10:12.654Z,11.80
2018-11-11T09:12:41.657Z,12.00
2018-11-11T09:15:12.576Z,12.00
2018-11-11T09:17:41.908Z,12.20
2018-11-11T09:20:16.058Z,12.20
2018-11-11T09:22:45.639Z,12.20
2018-11-11T09:25:14.650Z,12.20
2018-11-11T09:27:43.679Z,12.20
2018-11-11T09:30:14.168Z,12.20
2018-11-11T09:32:43.477Z,12.10
2018-11-11T09:35:12.561Z,12.10
2018-11-11T09:37:41.837Z,12.00
2018-11-11T09:40:11.895Z,12.10
2018-11-11T09:42:41.026Z,12.10
2018-11-11T09:45:11.826Z,12.10
2018-11-11T09:47:40.958Z,12.10
2018-11-11T09:50:11.759Z,12.10
2018-11-11T09:52:40.949Z,12.10
2018-11-11T09:55:11.160Z,12.20
2018-11-11T09:57:40.564Z,12.30
2018-11-11T10:00:14.273Z,12.30
2018-11-11T10:02:44.611Z,12.40
2018-11-11T10:06:18.739Z,12.50
2018-11-11T10:08:53.149Z,12.50
2018-11-11T10:11:30.031Z,12.50
2018-11-11T10:14:04.466Z,12.40
2018-11-11T10:16:38.771Z,12.50
2018-11-11T10:21:16.757Z,12.50
2018-11-11T10:23:51.535Z,12.60
2018-11-11T10:26:28.009Z,12.50
2018-11-11T10:29:20.735Z,12.60
2018-11-11T10:32:00.940Z,12.60
2018-11-11T10:35:04.233Z,12.80
2018-11-11T10:37:38.819Z,12.80
2018-11-11T10:40:14.392Z,13.00
2018-11-11T10:42:54.971Z,13.00
2018-11-11T10:45:28.976Z,13.00
2018-11-11T10:48:03.588Z,13.10
2018-11-11T10:50:39.448Z,13.20
2018-11-11T10:53:08.568Z,13.30
2018-11-11T10:55:37.568Z,13.30
2018-11-11T10:58:06.657Z,13.40
2018-11-11T11:00:41.184Z,13.60
2018-11-11T11:03:15.510Z,13.70
2018-11-11T11:05:44.516Z,13.50
2018-11-11T11:08:13.480Z,13.60
2018-11-11T11:10:42.733Z,13.60
2018-11-11T11:13:11.910Z,13.70
2018-11-11T11:15:40.900Z,13.70
2018-11-11T11:18:09.850Z,13.80
2018-11-11T11:20:38.818Z,13.90
2018-11-11T11:23:07.899Z,13.90
2018-11-11T11:25:36.829Z,14.00
2018-11-11T11:28:05.852Z,13.90
2018-11-11T11:30:34.822Z,13.90
2018-11-11T11:33:03.810Z,14.10
2018-11-11T11:35:32.858Z,14.20
2018-11-11T11:38:01.878Z,14.20
2018-11-11T11:40:30.968Z,14.30
2018-11-11T11:42:59.929Z,14.30
2018-11-11T11:45:28.897Z,14.50
2018-11-11T11:47:57.882Z,14.60
2018-11-11T11:50:26.938Z,14.70
2018-11-11T11:52:55.838Z,14.60
2018-11-11T11:55:24.833Z,14.80
2018-11-11T11:58:22.564Z,14.70
2018-11-11T12:00:51.643Z,14.80
2018-11-11T12:03:20.609Z,14.80
2018-11-11T12:05:49.637Z,14.70
2018-11-11T12:08:18.650Z,14.50
2018-11-11T12:10:47.617Z,14.50
2018-11-11T12:13:17.093Z,14.60
2018-11-11T12:15:46.168Z,14.70
2018-11-11T12:18:15.146Z,14.60
2018-11-11T12:20:44.222Z,14.80
2018-11-11T12:23:13.341Z,14.80
2018-11-11T12:25:42.517Z,14.90
2018-11-11T12:28:11.508Z,14.80
2018-11-11T12:30:40.499Z,14.80
2018-11-11T12:33:09.463Z,14.80
2018-11-11T12:35:38.465Z,15.00
2018-11-11T12:38:07.464Z,14.90
2018-11-11T12:40:36.471Z,15.00
2018-11-11T12:43:05.479Z,15.00
2018-11-11T12:45:34.484Z,14.90
2018-11-11T12:48:03.473Z,15.10
2018-11-11T12:50:35.400Z,15.00
2018-11-11T12:53:05.066Z,15.10
2018-11-11T12:55:34.545Z,14.90
2018-11-11T12:58:04.957Z,15.10
2018-11-11T13:00:33.928Z,15.10
2018-11-11T13:03:03.390Z,15.10
2018-11-11T13:05:32.328Z,15.00
2018-11-11T13:08:01.337Z,15.00
2018-11-11T13:10:30.343Z,14.90
2018-11-11T13:12:59.373Z,14.90
2018-11-11T13:15:28.380Z,15.20
2018-11-11T13:17:57.358Z,15.30
2018-11-11T13:20:26.346Z,15.30
2018-11-11T13:22:55.487Z,15.10
2018-11-11T13:25:24.359Z,15.10
2018-11-11T13:27:53.430Z,15.10
2018-11-11T13:30:22.362Z,15.10
2018-11-11T13:32:51.409Z,15.00
2018-11-11T13:35:20.389Z,15.00
2018-11-11T13:37:49.414Z,14.90
2018-11-11T13:40:19.391Z,15.00
2018-11-11T13:42:48.397Z,15.00
2018-11-11T13:45:19.615Z,15.00
2018-11-11T13:47:49.161Z,15.00
2018-11-11T13:50:20.456Z,14.90
2018-11-11T13:52:49.618Z,15.10
2018-11-11T13:55:19.301Z,15.10
2018-11-11T13:57:48.806Z,15.10
2018-11-11T14:00:23.220Z,15.10
2018-11-11T14:02:52.178Z,15.00
2018-11-11T14:05:21.695Z,14.80
2018-11-11T14:07:52.091Z,15.10
2018-11-11T14:10:21.015Z,14.80
2018-11-11T14:12:49.983Z,14.90
2018-11-11T14:15:22.434Z,15.10
2018-11-11T14:17:51.735Z,15.10
2018-11-11T14:20:21.962Z,15.20
2018-11-11T14:22:52.498Z,15.00
2018-11-11T14:25:24.255Z,15.00
2018-11-11T14:27:53.220Z,14.90
2018-11-11T14:30:23.542Z,14.90
2018-11-11T14:32:54.862Z,14.80
2018-11-11T14:35:24.025Z,14.80
2018-11-11T14:37:53.554Z,14.80
2018-11-11T14:40:24.639Z,14.70
2018-11-11T14:42:53.664Z,14.80
2018-11-11T14:45:23.138Z,14.50
2018-11-11T14:47:53.377Z,14.10
2018-11-11T14:50:23.044Z,14.50
2018-11-11T14:52:52.188Z,14.60
2018-11-11T14:55:25.500Z,14.60
2018-11-11T14:58:01.965Z,14.60
2018-11-11T15:00:32.256Z,14.70
2018-11-11T15:03:03.624Z,14.60
2018-11-11T15:05:32.790Z,14.70
2018-11-11T15:08:02.693Z,14.60
2018-11-11T15:10:31.739Z,14.70
2018-11-11T15:13:00.720Z,14.30
2018-11-11T15:15:29.660Z,14.20
2018-11-11T15:17:59.615Z,14.30
2018-11-11T15:20:28.656Z,14.60
2018-11-11T15:22:58.284Z,14.50
2018-11-11T15:25:28.566Z,14.30
2018-11-11T15:28:00.553Z,14.20
2018-11-11T15:30:30.859Z,14.30
2018-11-11T15:33:00.451Z,14.40
2018-11-11T15:35:29.739Z,14.50
2018-11-11T15:37:58.742Z,14.50
2018-11-11T15:40:31.127Z,14.30
2018-11-11T15:43:00.144Z,14.40
2018-11-11T15:45:30.321Z,14.40
2018-11-11T15:47:59.520Z,14.50
2018-11-11T15:50:29.770Z,14.70
2018-11-11T15:52:59.984Z,14.70
2018-11-11T15:55:30.212Z,14.70
2018-11-11T15:57:59.180Z,14.70
2018-11-11T16:00:30.485Z,14.20
2018-11-11T16:02:59.426Z,14.40
2018-11-11T16:05:28.409Z,14.50
2018-11-11T16:07:59.521Z,14.40
2018-11-11T16:10:29.804Z,14.40
2018-11-11T16:12:58.800Z,14.40
2018-11-11T16:15:36.396Z,14.30
2018-11-11T16:18:07.405Z,14.10
2018-11-11T16:20:36.378Z,13.90
2018-11-11T16:23:06.318Z,13.70
2018-11-11T16:25:35.565Z,13.70
2018-11-11T16:28:06.334Z,13.70
2018-11-11T16:30:36.928Z,13.60
2018-11-11T16:33:07.570Z,13.50
2018-11-11T16:35:36.554Z,13.50
2018-11-11T16:38:06.230Z,13.50
2018-11-11T16:40:36.533Z,13.50
2018-11-11T16:43:05.440Z,13.60
2018-11-11T16:45:35.284Z,13.60
2018-11-11T16:48:04.701Z,13.60
2018-11-11T16:50:34.710Z,13.30
2018-11-11T16:53:05.939Z,13.40
2018-11-11T16:55:35.616Z,13.60
2018-11-11T16:58:04.676Z,13.60
2018-11-11T17:00:34.996Z,13.50
2018-11-11T17:03:04.876Z,13.70
2018-11-11T17:05:35.005Z,13.60
2018-11-11T17:08:05.080Z,13.60
2018-11-11T17:10:35.363Z,13.70
2018-11-11T17:13:06.287Z,13.60
2018-11-11T17:15:35.330Z,13.60
2018-11-11T17:18:04.304Z,13.60
2018-11-11T17:20:33.378Z,13.60
2018-11-11T17:23:04.797Z,13.70
2018-11-11T17:25:33.760Z,13.70
2018-11-11T17:28:02.827Z,13.70
2018-11-11T17:30:39.552Z,13.70
2018-11-11T17:33:11.489Z,13.50
2018-11-11T17:35:41.318Z,13.60
2018-11-11T17:38:13.756Z,13.50
2018-11-11T17:40:43.165Z,13.70
2018-11-11T17:43:22.189Z,13.80
2018-11-11T17:45:52.631Z,13.80
2018-11-11T17:48:29.380Z,13.70
2018-11-11T17:51:04.752Z,13.70
2018-11-11T17:53:40.140Z,13.70
2018-11-11T17:56:15.155Z,13.70
2018-11-11T17:58:51.438Z,13.70
2018-11-11T18:01:26.856Z,13.70
2018-11-11T18:03:59.585Z,13.70
2018-11-11T18:06:32.754Z,13.80
2018-11-11T18:09:08.763Z,13.70
2018-11-11T18:11:48.524Z,13.70
2018-11-11T18:14:23.102Z,13.70
2018-11-11T18:16:57.961Z,13.70
2018-11-11T18:19:28.123Z,13.70
2018-11-11T18:21:57.717Z,13.70
2018-11-11T18:24:26.682Z,13.70
2018-11-11T18:26:55.711Z,13.70
2018-11-11T18:29:24.739Z,13.70
2018-11-11T18:31:53.857Z,13.70
2018-11-11T18:34:23.053Z,13.40
2018-11-11T18:36:52.057Z,13.50
2018-11-11T18:39:21.144Z,13.80
2018-11-11T18:41:50.143Z,13.70
2018-11-11T18:44:19.345Z,13.80
2018-11-11T18:46:48.328Z,13.80
2018-11-11T18:49:17.316Z,13.80
2018-11-11T18:51:46.514Z,13.60
2018-11-11T18:54:15.561Z,13.70
2018-11-11T18:56:45.322Z,13.70
2018-11-11T18:59:14.355Z,13.70
2018-11-11T19:01:43.338Z,13.50
2018-11-11T19:04:12.722Z,13.40
2018-11-11T19:06:41.757Z,13.50
2018-11-11T19:09:12.537Z,13.60
2018-11-11T19:11:41.491Z,13.20
2018-11-11T19:14:10.466Z,13.10
2018-11-11T19:16:39.508Z,13.40
2018-11-11T19:19:08.950Z,13.30
2018-11-11T19:21:37.970Z,13.60
2018-11-11T19:24:08.063Z,13.70
2018-11-11T19:26:37.543Z,14.00
2018-11-11T19:29:06.581Z,14.10
2018-11-11T19:31:35.532Z,14.20
2018-11-11T19:34:04.808Z,14.20
2018-11-11T19:36:33.783Z,14.10
2018-11-11T19:39:03.031Z,13.90
2018-11-11T19:41:32.159Z,13.80
2018-11-11T19:44:01.104Z,13.50
2018-11-11T19:46:30.065Z,13.70
2018-11-11T19:48:59.105Z,13.60
2018-11-11T19:51:28.091Z,14.00
2018-11-11T19:53:57.159Z,14.20
2018-11-11T19:56:26.121Z,14.10
2018-11-11T19:58:55.093Z,14.10
2018-11-11T20:01:24.442Z,14.00
2018-11-11T20:03:53.640Z,14.10
2018-11-11T20:06:22.633Z,14.20
2018-11-11T20:08:56.144Z,14.20
2018-11-11T20:11:25.733Z,14.10
2018-11-11T20:13:54.824Z,13.90
2018-11-11T20:16:23.879Z,13.90
2018-11-11T20:18:53.517Z,14.00
2018-11-11T20:21:22.509Z,13.90
2018-11-11T20:23:51.539Z,13.80
2018-11-11T20:26:20.552Z,13.70
2018-11-11T20:28:49.507Z,13.60
2018-11-11T20:31:18.539Z,12.70
2018-11-11T20:33:47.564Z,12.70
2018-11-11T20:36:16.618Z,12.90
2018-11-11T20:38:45.645Z,13.00
2018-11-11T20:41:14.594Z,12.50
2018-11-11T20:43:43.604Z,12.90
2018-11-11T20:46:12.683Z,12.90
2018-11-11T20:48:41.614Z,12.90
2018-11-11T20:51:10.571Z,12.90
2018-11-11T20:53:39.520Z,12.90
2018-11-11T20:56:08.568Z,12.80
2018-11-11T20:58:37.489Z,12.70
2018-11-11T21:01:06.483Z,12.70
2018-11-11T21:03:35.443Z,12.80
2018-11-11T21:06:04.441Z,12.80
2018-11-11T21:08:34.181Z,12.60
2018-11-11T21:11:03.127Z,12.80
2018-11-11T21:13:32.048Z,12.80
2018-11-11T21:16:00.986Z,12.80
2018-11-11T21:18:29.948Z,12.70
2018-11-11T21:20:58.945Z,12.70
2018-11-11T21:23:27.924Z,12.80
2018-11-11T21:25:56.925Z,12.70
2018-11-11T21:28:25.876Z,12.80
2018-11-11T21:30:54.844Z,12.80
2018-11-11T21:33:23.768Z,12.80
2018-11-11T21:35:52.736Z,12.90
2018-11-11T21:38:21.758Z,12.90
2018-11-11T21:40:50.752Z,12.80
2018-11-11T21:43:21.141Z,12.80
2018-11-11T21:45:51.702Z,12.80
2018-11-11T21:48:20.722Z,12.70
2018-11-11T21:50:49.705Z,12.80
2018-11-11T21:53:35.983Z,12.70
2018-11-11T21:56:05.296Z,12.70
2018-11-11T21:58:34.310Z,12.70
2018-11-11T22:01:04.008Z,12.70
2018-11-11T22:03:33.821Z,12.70
2018-11-11T22:06:03.091Z,12.60
2018-11-11T22:08:39.278Z,12.40
2018-11-11T22:13:39.879Z,12.70
2018-11-11T22:16:10.062Z,12.90
2018-11-11T22:18:39.011Z,12.90
2018-11-11T22:21:08.013Z,12.90
2018-11-11T22:23:37.017Z,12.80
2018-11-11T22:26:05.995Z,12.90
2018-11-11T22:28:34.990Z,12.90
2018-11-11T22:31:03.969Z,12.90
2018-11-11T22:33:33.012Z,12.90
2018-11-11T22:36:01.943Z,12.60
2018-11-11T22:38:30.936Z,12.70
2018-11-11T22:40:59.923Z,12.80
2018-11-11T22:43:28.868Z,12.80
2018-11-11T22:45:57.844Z,12.90
2018-11-11T22:48:26.824Z,12.90
2018-11-11T22:50:55.766Z,12.90
2018-11-11T22:53:24.888Z,12.90
2018-11-11T22:55:53.830Z,12.90
2018-11-11T22:58:22.786Z,12.80
2018-11-11T23:00:57.059Z,12.80
2018-11-11T23:03:26.005Z,12.80
2018-11-11T23:05:54.937Z,12.80
2018-11-11T23:08:23.942Z,12.70
2018-11-11T23:10:52.914Z,12.70
2018-11-11T23:13:21.876Z,12.60
2018-11-11T23:15:50.884Z,12.30
2018-11-11T23:18:19.820Z,12.20
2018-11-11T23:20:48.781Z,12.10
2018-11-11T23:23:17.761Z,12.20
2018-11-11T23:25:46.718Z,12.00
2018-11-11T23:28:15.793Z,12.20
2018-11-11T23:30:44.756Z,12.60
2018-11-11T23:33:13.737Z,12.50
2018-11-11T23:35:42.683Z,12.60
2018-11-11T23:38:11.634Z,12.60
2018-11-11T23:40:40.583Z,12.50
2018-11-11T23:43:09.557Z,12.10
2018-11-11T23:45:39.617Z,11.90
2018-11-11T23:48:08.617Z,11.80
2018-11-11T23:50:37.568Z,12.20
2018-11-11T23:53:06.504Z,12.30
2018-11-11T23:55:35.481Z,12.00
2018-11-11T23:58:04.492Z,12.10
